Time;durP1;ratioP1;P1;durP2;ratioP2;P2;SDS_P1;SDS_P2;PMS_P1;PMS_P2;Temp;Humidity;BMP_temperature;BMP_pressure;BME280_temperature;BME280_humidity;BME280_pressure;Samples;Min_cycle;Max_cycle;Signal;HPM_P1;HPM_P2
2022/04/18 00:02:09;;;;;;;40.60;36.60;;;;;;;0.05;59.30;98275.54;107695;1281;22459;31
2022/04/18 00:04:42;;;;;;;44.80;40.30;;;;;;;0.09;59.51;98273.27;108392;1280;22881;31
2022/04/18 00:20:29;;;;;;;29.70;26.90;;;;;;;-0.16;59.12;98255.88;92491;1284;22727;31
2022/04/18 00:26:17;;;;;;;32.30;28.90;;;;;;;-0.31;59.12;98251.05;108713;1277;22434;31
2022/04/18 00:29:03;;;;;;;46.10;41.30;;;;;;;-0.33;59.10;98251.04;108456;1278;22810;31
2022/04/18 00:31:37;;;;;;;35.20;31.70;;;;;;;-0.34;59.02;98248.05;103976;1277;5007978;31
2022/04/18 00:34:14;;;;;;;38.70;34.70;;;;;;;-0.32;59.23;98243.02;108681;1278;22422;31
2022/04/18 00:36:52;;;;;;;51.90;46.60;;;;;;;-0.31;59.34;98238.85;108652;1277;23677;31
2022/04/18 00:39:26;;;;;;;61.20;54.50;;;;;;;-0.38;59.78;98238.72;108477;1278;22406;31
2022/04/18 00:41:59;;;;;;;68.70;58.90;;;;;;;-0.46;59.63;98233.86;108631;1277;22810;31
2022/04/18 00:44:32;;;;;;;53.80;48.20;;;;;;;-0.55;59.80;98228.45;108580;1278;23817;31
2022/04/18 00:47:06;;;;;;;53.80;48.90;;;;;;;-0.64;60.01;98227.98;108525;1278;22770;31
2022/04/18 00:49:34;;;;;;;39.80;35.80;;;;;;;-0.73;60.06;98231.23;108288;1281;22092;-79
2022/04/18 00:52:12;;;;;;;38.50;34.80;;;;;;;-0.79;60.18;98231.28;105446;1280;22540;-84
2022/04/18 00:54:42;;;;;;;34.70;31.30;;;;;;;-0.79;60.47;98227.21;108209;1281;22412;-92
2022/04/18 00:57:10;;;;;;;37.40;34.00;;;;;;;-0.78;60.33;98221.05;108460;1290;22950;-91
2022/04/18 00:59:38;;;;;;;32.40;29.40;;;;;;;-0.78;60.53;98220.89;108478;1290;22457;-91
2022/04/18 01:02:06;;;;;;;29.90;26.80;;;;;;;-0.79;61.15;98214.39;108405;1289;23048;-88
2022/04/18 01:04:34;;;;;;;36.80;33.30;;;;;;;-0.80;60.82;98204.88;108446;1290;22431;-89
2022/04/18 01:07:03;;;;;;;37.80;33.90;;;;;;;-0.85;60.91;98200.15;108483;1290;22262;-87
2022/04/18 01:09:33;;;;;;;31.10;28.20;;;;;;;-0.84;60.89;98203.48;108460;1279;23402;-88
2022/04/18 01:12:06;;;;;;;25.00;22.50;;;;;;;-0.88;61.77;98191.35;108280;1281;22485;-85
2022/04/18 01:14:58;;;;;;;25.80;23.30;;;;;;;-0.91;61.53;98188.09;108443;1278;22655;31
2022/04/18 01:17:51;;;;;;;39.60;35.90;;;;;;;-0.91;61.60;98189.06;108358;1278;22102;-80
2022/04/18 01:20:34;;;;;;;28.40;25.50;;;;;;;-0.91;61.60;98184.19;102125;1278;22405;-87
2022/04/18 01:23:36;;;;;;;26.00;23.50;;;;;;;-0.89;61.46;98184.40;108346;1289;22303;-86
2022/04/18 01:29:01;;;;;;;27.30;24.50;;;;;;;-0.75;61.48;98181.45;108354;1278;23737;31
2022/04/18 01:31:37;;;;;;;28.20;25.60;;;;;;;-0.73;61.35;98182.70;108345;1290;22137;-85
2022/04/18 01:34:10;;;;;;;28.60;25.80;;;;;;;-0.80;61.53;98175.48;108307;1278;22518;-90
2022/04/18 01:36:44;;;;;;;28.00;25.40;;;;;;;-0.84;61.98;98174.43;108467;1278;23514;-87
2022/04/18 01:39:15;;;;;;;26.80;24.20;;;;;;;-0.90;62.93;98170.66;108377;1290;22948;-90
2022/04/18 01:41:42;;;;;;;27.40;24.70;;;;;;;-0.95;62.76;98170.25;108462;1290;23050;-93
2022/04/18 01:44:11;;;;;;;25.10;22.90;;;;;;;-1.00;62.59;98165.63;108303;1290;22484;-91
2022/04/18 01:46:39;;;;;;;25.00;22.60;;;;;;;-1.03;62.68;98165.02;108381;1290;22363;-92
2022/04/18 01:49:08;;;;;;;23.70;21.50;;;;;;;-0.97;62.59;98166.61;108199;1290;22378;-91
2022/04/18 01:51:35;;;;;;;22.50;20.30;;;;;;;-0.93;62.41;98165.55;108122;1290;22410;-91
2022/04/18 01:54:06;;;;;;;22.70;20.50;;;;;;;-0.87;62.45;98165.95;108229;1290;22391;-90
2022/04/18 01:56:35;;;;;;;26.30;23.90;;;;;;;-0.83;62.47;98160.50;108143;1290;22338;-93
2022/04/18 01:59:03;;;;;;;23.30;21.20;;;;;;;-0.88;62.36;98160.67;108123;1290;22421;-90
2022/04/18 02:01:31;;;;;;;23.50;21.10;;;;;;;-0.94;62.69;98158.08;107925;1291;22263;-91
2022/04/18 02:04:00;;;;;;;23.40;21.10;;;;;;;-1.00;62.78;98156.98;108088;1289;22262;-92
2022/04/18 02:06:28;;;;;;;25.70;23.30;;;;;;;-1.05;63.02;98151.88;108186;1290;22479;-91
2022/04/18 02:08:56;;;;;;;27.90;25.30;;;;;;;-1.09;63.05;98151.95;108177;1290;22361;-91
2022/04/18 02:11:25;;;;;;;22.20;20.00;;;;;;;-1.13;63.04;98148.00;108129;1290;22495;-93
2022/04/18 02:13:54;;;;;;;24.40;22.00;;;;;;;-1.13;63.03;98145.27;108173;1290;22251;-91
2022/04/18 02:16:22;;;;;;;24.70;21.80;;;;;;;-1.09;63.36;98140.88;108271;1290;22257;-91
2022/04/18 02:18:50;;;;;;;28.40;25.00;;;;;;;-1.05;63.68;98135.19;108188;1290;22279;-92
2022/04/18 02:21:19;;;;;;;28.30;25.60;;;;;;;-0.98;63.58;98132.61;108033;1291;22354;-91
2022/04/18 02:23:47;;;;;;;26.70;24.00;;;;;;;-0.95;63.61;98131.55;108293;1291;22244;-86
2022/04/18 02:26:15;;;;;;;26.70;24.00;;;;;;;-0.92;63.69;98129.08;108323;1290;22386;-93
2022/04/18 02:28:45;;;;;;;30.10;27.10;;;;;;;-0.90;63.74;98126.71;108372;1290;22431;-86
2022/04/18 02:31:13;;;;;;;26.60;23.90;;;;;;;-0.86;63.95;98129.26;108157;1291;22425;-91
2022/04/18 02:33:41;;;;;;;28.50;25.30;;;;;;;-0.81;63.93;98129.71;108360;1290;22281;-90
2022/04/18 02:36:10;;;;;;;25.60;22.80;;;;;;;-0.77;63.88;98127.14;108329;1290;22202;-93
2022/04/18 02:38:38;;;;;;;26.80;23.90;;;;;;;-0.69;63.99;98128.32;108251;1290;22428;-93
2022/04/18 02:41:06;;;;;;;37.00;33.20;;;;;;;-0.63;63.93;98125.16;108176;1290;22251;-92
2022/04/18 02:43:35;;;;;;;35.90;32.20;;;;;;;-0.61;64.35;98116.95;108182;1290;22293;-93
2022/04/18 02:46:07;;;;;;;31.40;28.10;;;;;;;-0.60;64.28;98118.73;107968;1291;23152;-92
2022/04/18 02:48:43;;;;;;;31.40;28.20;;;;;;;-0.56;64.43;98113.92;108148;1290;23108;-92
2022/04/18 02:51:13;;;;;;;30.80;27.70;;;;;;;-0.49;64.74;98115.86;107923;1291;23547;-92
2022/04/18 02:53:44;;;;;;;32.40;29.20;;;;;;;-0.43;64.94;98115.23;108257;1290;22383;-89
2022/04/18 02:56:12;;;;;;;31.50;28.30;;;;;;;-0.39;64.75;98112.48;108171;1291;22378;-89
2022/04/18 02:58:47;;;;;;;37.30;33.40;;;;;;;-0.36;65.03;98114.00;108322;1290;22276;-87
2022/04/18 03:01:15;;;;;;;29.90;26.80;;;;;;;-0.32;64.84;98112.73;108194;1290;22374;-91
2022/04/18 03:03:43;;;;;;;42.50;38.20;;;;;;;-0.25;64.74;98109.43;108070;1290;22321;-87
2022/04/18 03:06:11;;;;;;;32.10;28.70;;;;;;;-0.17;64.58;98102.88;108278;1290;22383;-91
2022/04/18 03:08:39;;;;;;;33.70;29.60;;;;;;;-0.10;64.77;98098.17;108295;1290;22263;-91
2022/04/18 03:11:12;;;;;;;32.40;28.90;;;;;;;-0.04;64.81;98097.24;108354;1278;22808;31
2022/04/18 03:13:44;;;;;;;33.60;30.10;;;;;;;-0.02;64.49;98092.84;108174;1290;22481;-91
2022/04/18 03:16:32;;;;;;;33.00;29.20;;;;;;;-0.03;64.41;98093.89;108007;1290;22710;-90
2022/04/18 03:19:00;;;;;;;33.90;30.50;;;;;;;-0.03;64.53;98091.00;107999;1290;22361;-91
2022/04/18 03:21:29;;;;;;;37.00;32.10;;;;;;;-0.03;64.44;98089.64;108076;1290;23007;-92
2022/04/18 03:23:58;;;;;;;36.30;32.40;;;;;;;-0.01;64.85;98089.37;108131;1290;22406;-92
2022/04/18 03:26:35;;;;;;;38.10;34.00;;;;;;;0.06;64.83;98089.16;108124;1289;22290;-90
2022/04/18 03:29:06;;;;;;;29.90;26.60;;;;;;;0.15;65.01;98090.50;108134;1290;22315;-90
2022/04/18 03:31:34;;;;;;;30.60;26.30;;;;;;;0.24;64.73;98083.45;108056;1289;22320;-92
2022/04/18 03:34:03;;;;;;;31.50;28.30;;;;;;;0.31;64.83;98078.66;108132;1290;22297;-92
2022/04/18 03:42:09;;;;;;;34.20;29.70;;;;;;;0.33;65.26;98074.02;108200;1290;22318;-90
2022/04/18 03:44:46;;;;;;;31.60;27.90;;;;;;;0.33;65.40;98076.27;107729;1290;22486;-90
2022/04/18 03:47:15;;;;;;;30.20;26.90;;;;;;;0.36;65.46;98075.17;107701;1291;22277;-89
2022/04/18 03:49:43;;;;;;;31.00;27.60;;;;;;;0.36;65.37;98077.25;107816;1291;22353;-90
2022/04/18 03:52:11;;;;;;;29.70;26.50;;;;;;;0.40;65.46;98082.11;107991;1291;22973;-90
2022/04/18 03:54:43;;;;;;;26.50;23.30;;;;;;;0.49;65.45;98082.63;107845;1291;22975;-91
2022/04/18 03:59:53;;;;;;;37.30;31.00;;;;;;;0.75;65.92;98078.20;103757;1307;545781;-90
2022/04/18 04:02:23;;;;;;;38.90;35.00;;;;;;;0.80;65.77;98081.73;106602;1284;22492;-89
2022/04/18 04:04:53;;;;;;;44.00;39.70;;;;;;;0.82;65.75;98086.41;108289;1284;22549;-88
2022/04/18 04:07:21;;;;;;;44.50;40.10;;;;;;;0.81;65.53;98086.09;109152;1284;22599;-85
2022/04/18 04:10:15;;;;;;;48.00;43.20;;;;;;;0.76;65.53;98077.96;108216;1286;22710;-91
2022/04/18 04:12:43;;;;;;;47.80;43.20;;;;;;;0.73;65.76;98079.91;108146;1284;173235;-86
2022/04/18 04:16:06;;;;;;;44.40;40.20;;;;;;;0.69;65.61;98070.55;108423;1274;22540;31
2022/04/18 04:18:35;;;;;;;43.40;39.30;;;;;;;0.63;65.84;98070.23;107884;1272;24299;-91
2022/04/18 04:21:05;;;;;;;36.40;32.90;;;;;;;0.61;65.68;98063.45;108711;1283;22496;-94
2022/04/18 04:23:33;;;;;;;41.60;37.40;;;;;;;0.63;65.76;98065.25;107205;1284;22626;-89
2022/04/18 04:26:32;;;;;;;42.00;38.00;;;;;;;0.67;65.78;98059.69;106576;1282;25337;-90
2022/04/18 04:29:00;;;;;;;37.60;34.00;;;;;;;0.70;66.02;98056.49;107149;1284;23935;-92
2022/04/18 04:31:39;;;;;;;35.30;31.80;;;;;;;0.70;65.95;98056.08;107676;1284;22593;-92
2022/04/18 04:34:10;;;;;;;32.80;29.60;;;;;;;0.73;66.29;98052.97;108070;1284;23807;-88
2022/04/18 04:36:50;;;;;;;35.50;32.20;;;;;;;0.77;66.13;98053.48;109155;1267;22545;31
2022/04/18 04:39:20;;;;;;;33.10;29.80;;;;;;;0.83;66.03;98053.03;108888;1268;23933;-93
2022/04/18 04:41:47;;;;;;;38.10;34.40;;;;;;;0.86;66.21;98058.36;107207;1278;22721;-92
2022/04/18 04:44:17;;;;;;;38.90;34.80;;;;;;;0.87;66.10;98061.82;107064;1278;25301;-90
2022/04/18 04:47:05;;;;;;;40.00;35.70;;;;;;;0.89;66.15;98060.39;107649;1278;22553;-92
2022/04/18 04:49:33;;;;;;;45.20;40.40;;;;;;;0.96;66.15;98062.00;108686;1279;23337;-90
2022/04/18 04:52:30;;;;;;;46.30;41.50;;;;;;;0.98;66.35;98054.64;108948;1280;22642;-91
2022/04/18 04:54:58;;;;;;;46.60;41.80;;;;;;;1.02;66.47;98058.27;108971;1281;22490;-90
2022/04/18 04:57:40;;;;;;;49.90;44.60;;;;;;;1.06;66.76;98061.99;107541;1281;23310;-91
2022/04/18 05:00:37;;;;;;;51.10;45.80;;;;;;;1.08;66.57;98071.89;108138;1279;22663;-88
2022/04/18 05:03:24;;;;;;;54.20;48.70;;;;;;;1.07;66.52;98077.48;108351;1280;22600;-91
2022/04/18 05:05:52;;;;;;;52.10;46.50;;;;;;;1.07;66.61;98077.32;107967;1281;22541;-88
2022/04/18 05:08:42;;;;;;;48.90;43.90;;;;;;;1.16;66.73;98078.25;107774;1281;22828;-90
2022/04/18 05:11:11;;;;;;;56.10;48.70;;;;;;;1.30;66.72;98080.04;108030;1280;22542;-91
2022/04/18 05:13:45;;;;;;;55.90;50.00;;;;;;;1.43;66.75;98078.53;107554;1280;22562;-92
2022/04/18 05:16:16;;;;;;;58.70;52.70;;;;;;;1.53;66.88;98071.95;106469;1281;26631;-92
2022/04/18 05:18:51;;;;;;;45.30;40.80;;;;;;;1.63;67.00;98067.66;106912;1281;22556;-91
2022/04/18 05:21:19;;;;;;;52.20;46.70;;;;;;;1.71;66.97;98069.15;108305;1281;22999;-93
2022/04/18 05:23:48;;;;;;;51.10;46.00;;;;;;;1.78;66.89;98065.30;107465;1280;22566;-91
2022/04/18 05:26:16;;;;;;;52.10;46.90;;;;;;;1.85;66.89;98067.07;106589;1280;22665;-90
2022/04/18 05:28:45;;;;;;;55.60;50.40;;;;;;;1.92;66.79;98067.61;106564;1280;22629;-91
2022/04/18 05:31:17;;;;;;;48.90;44.00;;;;;;;1.98;66.84;98065.12;107215;1280;24094;-93
2022/04/18 05:33:51;;;;;;;46.40;41.80;;;;;;;2.08;66.81;98060.89;107801;1277;24226;-89
2022/04/18 05:36:22;;;;;;;46.60;42.00;;;;;;;2.18;66.98;98061.87;107721;1277;22550;-90
2022/04/18 05:38:50;;;;;;;47.70;42.60;;;;;;;2.28;67.23;98060.33;108573;1277;22695;-93
2022/04/18 05:41:22;;;;;;;52.60;47.10;;;;;;;2.39;67.06;98053.47;108193;1277;22572;-92
2022/04/18 05:43:51;;;;;;;53.00;47.70;;;;;;;2.49;66.86;98050.98;108278;1277;22683;-91
2022/04/18 05:46:24;;;;;;;59.30;53.20;;;;;;;2.58;66.93;98050.17;109363;1276;22535;-86
2022/04/18 05:48:52;;;;;;;59.80;53.80;;;;;;;2.69;67.02;98059.90;109670;1277;22532;-91
2022/04/18 05:51:26;;;;;;;61.40;55.30;;;;;;;2.77;66.72;98066.88;109474;1276;22577;-93
2022/04/18 05:53:54;;;;;;;60.90;55.00;;;;;;;2.80;66.46;98066.83;109281;1277;23011;-92
2022/04/18 05:56:29;;;;;;;62.10;56.30;;;;;;;2.83;66.55;98067.07;109283;1277;22709;-88
2022/04/18 05:58:59;;;;;;;59.90;54.00;;;;;;;2.90;66.74;98072.17;109480;1277;23018;-93
2022/04/18 06:01:46;;;;;;;57.70;51.80;;;;;;;2.99;66.84;98072.34;108696;1276;22557;-93
2022/04/18 06:04:28;;;;;;;54.10;48.60;;;;;;;3.08;66.62;98074.28;108733;1277;22905;-89
2022/04/18 06:07:32;;;;;;;52.20;47.00;;;;;;;3.13;66.49;98070.79;108399;1277;22564;-92
2022/04/18 06:10:41;;;;;;;50.70;45.70;;;;;;;3.17;66.41;98071.42;109017;1277;22760;-93
2022/04/18 06:13:28;;;;;;;50.40;45.30;;;;;;;3.27;66.52;98067.45;109601;1277;23287;-92
2022/04/18 06:15:56;;;;;;;45.70;41.10;;;;;;;3.33;66.13;98057.63;108152;1277;22536;-89
2022/04/18 06:18:26;;;;;;;42.80;38.50;;;;;;;3.35;66.44;98057.33;107656;1277;22486;-92
2022/04/18 06:20:56;;;;;;;39.70;35.60;;;;;;;3.39;66.34;98057.48;107655;1277;24336;-90
2022/04/18 06:23:24;;;;;;;41.50;37.40;;;;;;;3.41;65.98;98058.04;106853;1277;22567;-93
2022/04/18 06:26:12;;;;;;;44.50;39.80;;;;;;;3.40;65.93;98059.41;107438;1277;22551;-93
2022/04/18 06:28:41;;;;;;;43.20;38.90;;;;;;;3.39;66.03;98062.98;106831;1277;25631;-90
2022/04/18 06:31:09;;;;;;;42.90;38.40;;;;;;;3.45;66.20;98070.02;107115;1277;22655;-94
2022/04/18 06:33:45;;;;;;;41.40;37.00;;;;;;;3.58;66.18;98071.81;108213;1277;23908;-92
2022/04/18 06:36:13;;;;;;;47.20;42.30;;;;;;;3.72;66.22;98072.61;107648;1277;23078;-91
2022/04/18 06:39:14;;;;;;;45.10;40.50;;;;;;;3.86;66.10;98072.40;107741;1275;22568;-93
2022/04/18 06:41:42;;;;;;;46.10;41.30;;;;;;;4.02;65.95;98075.07;107464;1277;24360;-91
2022/04/18 06:44:40;;;;;;;36.50;32.90;;;;;;;4.16;66.40;98072.21;107783;1277;22690;-92
2022/04/18 06:47:09;;;;;;;37.10;33.30;;;;;;;4.36;65.94;98070.31;107613;1277;22741;-92
2022/04/18 06:49:55;;;;;;;35.80;32.00;;;;;;;4.48;65.52;98064.11;106948;1277;23006;-91
2022/04/18 06:52:50;;;;;;;32.60;29.10;;;;;;;4.57;65.41;98063.59;107279;1277;22492;-89
2022/04/18 06:59:34;;;;;;;25.20;22.70;;;;;;;4.71;65.16;98052.02;107241;1277;22606;-92
2022/04/18 07:02:03;;;;;;;25.00;22.30;;;;;;;4.75;64.94;98045.05;107663;1277;25048;-91
2022/04/18 07:04:31;;;;;;;23.50;21.10;;;;;;;4.83;64.75;98044.71;107978;1277;22519;-95
2022/04/18 07:07:01;;;;;;;20.80;18.80;;;;;;;4.94;64.94;98044.89;109387;1276;22672;-92
2022/04/18 07:09:36;;;;;;;21.30;19.20;;;;;;;5.08;64.74;98040.16;109586;1263;22376;31
2022/04/18 07:12:23;;;;;;;22.10;19.80;;;;;;;5.25;64.75;98035.80;109441;1266;22449;31
2022/04/18 07:14:55;;;;;;;19.00;17.20;;;;;;;5.40;64.55;98037.63;109068;1265;22587;-89
2022/04/18 07:17:23;;;;;;;18.60;16.70;;;;;;;5.53;64.03;98031.85;109323;1267;22544;-93
2022/04/18 07:19:51;;;;;;;17.00;15.40;;;;;;;5.67;63.52;98031.04;109197;1277;22852;-91
2022/04/18 07:22:20;;;;;;;20.70;18.50;;;;;;;5.80;63.35;98027.48;109199;1277;22545;-90
2022/04/18 07:24:50;;;;;;;21.40;19.10;;;;;;;5.91;63.10;98023.67;109667;1264;22823;-88
2022/04/18 07:27:18;;;;;;;20.40;18.00;;;;;;;6.04;63.14;98025.52;109581;1264;22871;-87
2022/04/18 07:29:51;;;;;;;19.30;17.40;;;;;;;6.15;63.25;98021.68;109579;1267;22553;-90
2022/04/18 07:32:19;;;;;;;16.40;14.80;;;;;;;6.26;63.05;98019.48;109306;1270;22553;-94
2022/04/18 07:34:48;;;;;;;17.20;15.40;;;;;;;6.37;62.69;98015.59;109298;1277;22565;-81
2022/04/18 07:40:42;;;;;;;18.80;16.90;;;;;;;6.60;62.13;98018.09;108597;1279;25367;-90
2022/04/18 07:43:11;;;;;;;17.60;15.90;;;;;;;6.72;61.52;98013.63;108368;1279;23112;-88
2022/04/18 07:45:40;;;;;;;16.50;14.90;;;;;;;6.85;61.62;98014.08;109371;1279;22603;-89
2022/04/18 07:48:08;;;;;;;15.40;13.90;;;;;;;6.93;61.26;98015.30;108279;1281;22569;-90
2022/04/18 07:53:26;;;;;;;14.40;12.90;;;;;;;7.00;60.80;98024.00;107811;1280;22491;-89
2022/04/18 07:55:55;;;;;;;14.60;13.00;;;;;;;7.02;61.11;98029.27;107596;1279;22553;-90
2022/04/18 07:58:24;;;;;;;18.60;16.90;;;;;;;7.07;60.96;98031.50;107167;1279;22560;-89
2022/04/18 08:00:53;;;;;;;11.10;9.60;;;;;;;7.12;60.45;98022.21;107316;1279;22577;-90
2022/04/18 08:03:22;;;;;;;9.30;8.20;;;;;;;7.09;59.30;98016.64;108272;1279;22479;-90
2022/04/18 08:05:56;;;;;;;7.90;7.10;;;;;;;7.14;59.53;98021.56;107342;1278;22553;-88
2022/04/18 08:08:31;;;;;;;13.40;10.00;;;;;;;7.28;59.47;98014.06;107327;1279;22648;-89
2022/04/18 08:11:00;;;;;;;7.50;6.80;;;;;;;7.41;58.68;98014.60;109088;1279;22503;-87
2022/04/18 08:13:29;;;;;;;5.90;5.10;;;;;;;7.46;57.80;98012.74;108810;1280;22689;-90
2022/04/18 08:16:17;;;;;;;7.10;5.40;;;;;;;7.45;56.74;98008.67;109070;1281;22637;-87
2022/04/18 08:18:49;;;;;;;6.60;5.70;;;;;;;7.49;57.65;98015.15;109331;1279;22564;-88
2022/04/18 08:21:23;;;;;;;6.30;5.60;;;;;;;7.53;56.11;98012.62;108551;1280;22553;-87
2022/04/18 08:23:51;;;;;;;5.90;5.20;;;;;;;7.51;56.35;98010.14;109150;1279;22552;-87
2022/04/18 08:26:38;;;;;;;9.00;7.90;;;;;;;7.55;56.87;98009.32;109482;1279;22550;-88
2022/04/18 08:29:18;;;;;;;7.00;5.50;;;;;;;7.53;52.05;98008.00;109510;1279;22920;-86
2022/04/18 08:32:12;;;;;;;7.20;6.50;;;;;;;7.41;53.77;98011.33;107850;1279;22591;-86
2022/04/18 08:34:40;;;;;;;6.90;6.00;;;;;;;7.39;53.56;98010.33;109443;1279;22755;-84
2022/04/18 08:37:11;;;;;;;7.00;6.10;;;;;;;7.38;53.65;98007.75;109456;1279;22542;-90
2022/04/18 08:40:06;;;;;;;7.20;6.20;;;;;;;7.41;53.66;98004.35;109267;1279;22639;-87
2022/04/18 08:42:39;;;;;;;8.00;6.60;;;;;;;7.53;53.61;98008.11;109494;1278;22552;-90
2022/04/18 08:45:13;;;;;;;7.00;6.00;;;;;;;7.56;50.94;98002.56;109456;1279;22639;-83
2022/04/18 08:53:29;;;;;;;6.90;6.30;;;;;;;7.34;47.48;98007.55;109495;1278;22743;-88
2022/04/18 08:55:59;;;;;;;6.90;6.20;;;;;;;7.32;48.44;98006.58;109581;1278;22568;-84
2022/04/18 08:58:30;;;;;;;12.10;11.00;;;;;;;7.37;50.01;98001.86;109268;1279;22564;-88
2022/04/18 09:01:00;;;;;;;8.80;6.90;;;;;;;7.49;50.71;97998.95;109459;1266;22777;-87
2022/04/18 09:04:09;;;;;;;9.70;8.80;;;;;;;7.66;50.51;97994.41;109427;1268;22584;-85
2022/04/18 09:06:41;;;;;;;9.20;8.30;;;;;;;7.80;49.98;97995.89;109690;1274;22790;-84
2022/04/18 09:09:29;;;;;;;7.40;6.60;;;;;;;7.94;48.98;97991.28;109010;1267;22616;-89
2022/04/18 09:12:23;;;;;;;15.60;14.10;;;;;;;8.05;49.72;97985.73;109555;1267;22430;-83
2022/04/18 09:15:37;;;;;;;10.70;9.70;;;;;;;8.23;49.71;97984.79;109507;1265;22878;31
2022/04/18 09:18:17;;;;;;;7.50;6.40;;;;;;;8.50;50.51;97981.05;109646;1267;22425;-80
2022/04/18 09:21:07;;;;;;;7.70;6.80;;;;;;;8.77;49.84;97977.39;109744;1265;22551;-81
2022/04/18 09:23:44;;;;;;;7.20;6.10;;;;;;;9.10;50.13;97974.94;109333;1265;22872;31
2022/04/18 09:26:22;;;;;;;6.40;5.70;;;;;;;9.37;49.12;97965.90;109294;1266;22820;31
2022/04/18 09:29:04;;;;;;;10.30;9.30;;;;;;;9.59;48.97;97966.67;109678;1265;22485;-92
2022/04/18 09:31:53;;;;;;;8.10;7.10;;;;;;;9.61;43.00;97967.40;109393;1265;22413;31
2022/04/18 09:34:29;;;;;;;7.20;5.80;;;;;;;9.44;44.64;97966.77;109160;1270;22624;-87
2022/04/18 09:37:13;;;;;;;8.50;6.40;;;;;;;9.38;46.20;97960.06;109078;1274;22514;-81
2022/04/18 09:39:55;;;;;;;6.70;5.70;;;;;;;9.37;45.73;97962.67;108968;1268;22390;31
2022/04/18 09:42:27;;;;;;;6.60;5.90;;;;;;;9.34;46.30;97962.05;109046;1271;22562;-91
2022/04/18 09:45:08;;;;;;;9.10;6.70;;;;;;;9.49;46.96;97956.75;109213;1273;22704;-84
2022/04/18 09:47:38;;;;;;;7.30;5.80;;;;;;;9.75;47.09;97960.05;108992;1273;22637;-87
2022/04/18 09:53:31;;;;;;;6.50;5.10;;;;;;;10.19;43.16;97954.63;108437;1275;23947;31
2022/04/18 09:59:30;;;;;;;7.40;5.80;;;;;;;10.63;45.28;97943.55;108784;1284;22646;-88
2022/04/18 10:01:59;;;;;;;9.50;6.40;;;;;;;10.87;44.66;97947.30;108535;1285;22907;-85
2022/04/18 10:04:28;;;;;;;7.30;5.50;;;;;;;10.93;45.14;97943.64;108509;1286;22738;-86
2022/04/18 10:06:57;;;;;;;8.20;7.00;;;;;;;10.98;44.28;97941.59;109083;1271;22716;-88
2022/04/18 10:09:29;;;;;;;6.40;5.50;;;;;;;11.01;42.23;97945.36;109516;1270;22731;-89
2022/04/18 10:15:36;;;;;;;7.20;6.10;;;;;;;10.45;38.57;97939.52;108943;1273;22815;31
2022/04/18 10:18:11;;;;;;;6.70;5.30;;;;;;;10.49;42.02;97940.08;109119;1271;22545;31
2022/04/18 10:21:06;;;;;;;6.90;5.60;;;;;;;10.49;41.26;97936.48;108919;1282;22566;-89
2022/04/18 10:23:42;;;;;;;6.60;5.90;;;;;;;10.46;42.39;97940.25;109022;1271;23655;31
2022/04/18 10:29:16;;;;;;;9.30;7.10;;;;;;;10.09;38.08;97943.42;109121;1272;22610;31
2022/04/18 10:31:53;;;;;;;6.80;5.90;;;;;;;9.75;39.45;97943.63;108842;1273;23060;-81
2022/04/18 10:34:23;;;;;;;7.30;5.90;;;;;;;9.53;40.30;97942.16;109497;1272;22501;-82
2022/04/18 10:37:00;;;;;;;6.80;5.50;;;;;;;9.28;38.05;97939.55;109103;1270;22409;31
2022/04/18 10:40:05;;;;;;;7.30;6.20;;;;;;;8.93;37.84;97939.27;108306;1273;22891;-88
2022/04/18 10:42:43;;;;;;;7.30;6.20;;;;;;;8.82;39.61;97931.29;107601;1283;22496;-85
2022/04/18 10:45:14;;;;;;;6.50;5.80;;;;;;;8.81;40.11;97927.23;107785;1283;23583;-87
2022/04/18 10:47:59;;;;;;;8.20;5.50;;;;;;;8.81;39.93;97926.24;108609;1284;22570;-88
2022/04/18 10:50:43;;;;;;;6.50;5.80;;;;;;;8.75;38.74;97925.64;108699;1284;22610;-87
2022/04/18 10:53:15;;;;;;;8.00;7.20;;;;;;;8.72;39.71;97920.94;108634;1284;23012;-85
2022/04/18 10:55:53;;;;;;;8.10;7.10;;;;;;;8.81;40.27;97918.94;108765;1284;22582;-87
2022/04/18 10:58:23;;;;;;;13.20;12.10;;;;;;;8.87;39.51;97915.22;107974;1284;22613;-86
2022/04/18 11:00:58;;;;;;;8.70;7.90;;;;;;;8.82;39.86;97913.50;108717;1284;22673;-88
2022/04/18 11:03:35;;;;;;;8.40;6.90;;;;;;;8.90;40.32;97910.18;108651;1284;22569;-87
2022/04/18 11:06:15;;;;;;;7.50;6.70;;;;;;;8.99;39.89;97910.29;108932;1284;22624;-90
2022/04/18 11:09:07;;;;;;;7.30;6.00;;;;;;;9.04;40.15;97898.62;108597;1284;22550;-89
2022/04/18 11:11:44;;;;;;;6.10;5.40;;;;;;;9.29;39.90;97892.65;108739;1284;22585;-86
2022/04/18 11:14:24;;;;;;;7.70;6.90;;;;;;;9.72;40.19;97890.50;108632;1284;22601;-83
2022/04/18 11:16:58;;;;;;;7.70;6.30;;;;;;;10.19;40.10;97888.94;108656;1284;22561;-85
2022/04/18 11:19:42;;;;;;;7.00;6.10;;;;;;;10.67;39.56;97882.80;108730;1272;22607;31
2022/04/18 11:24:51;;;;;;;7.40;6.30;;;;;;;11.07;39.43;97877.67;109057;1282;22957;-91
2022/04/18 11:27:23;;;;;;;7.90;6.60;;;;;;;11.11;39.32;97876.67;108790;1282;22634;-81
2022/04/18 11:29:59;;;;;;;7.70;6.90;;;;;;;10.88;36.96;97867.45;108868;1282;22622;-82
2022/04/18 11:32:28;;;;;;;9.40;8.00;;;;;;;10.46;36.86;97871.13;109151;1282;22610;-87
2022/04/18 11:34:58;;;;;;;10.20;8.00;;;;;;;10.17;36.61;97874.44;109160;1282;22568;-81
2022/04/18 11:37:33;;;;;;;9.00;6.90;;;;;;;9.97;36.99;97874.72;109158;1282;22529;-81
2022/04/18 11:40:08;;;;;;;;;;;;;;;9.80;37.61;97868.65;109175;1270;22644;31
2022/04/18 11:42:37;;;;;;;;;;;;;;;9.62;37.43;97873.92;109030;1275;22503;-80
2022/04/18 11:45:06;;;;;;;;;;;;;;;9.47;37.29;97869.24;109479;1281;22562;-80
2022/04/18 11:47:34;;;;;;;;;;;;;;;9.33;37.61;97866.34;109157;1281;23116;-86
2022/04/18 11:50:02;;;;;;;;;;;;;;;9.26;37.16;97866.38;108964;1281;22594;-82
2022/04/18 11:52:32;;;;;;;;;;;;;;;9.25;36.60;97868.02;109197;1282;23076;-85
2022/04/18 11:55:04;;;;;;;;;;;;;;;9.15;36.77;97864.70;109262;1283;22582;-86
2022/04/18 11:57:34;;;;;;;;;;;;;;;9.10;37.34;97862.09;109300;1281;23045;-81
2022/04/18 12:00:06;;;;;;;;;;;;;;;9.20;36.85;97863.83;109163;1282;22628;-82
2022/04/18 12:08:18;;;;;;;;;;;;;;;8.84;37.05;97857.96;109187;1283;22716;-84
2022/04/18 12:10:46;;;;;;;;;;;;;;;8.83;36.79;97855.18;108797;1282;22647;-81
2022/04/18 12:13:14;;;;;;;;;;;;;;;8.78;36.10;97857.71;109162;1282;22598;-86
2022/04/18 12:15:43;;;;;;;;;;;;;;;8.59;36.29;97858.48;108536;1283;22603;-85
2022/04/18 12:18:13;;;;;;;;;;;;;;;8.40;36.46;97854.92;108725;1282;22743;-85
2022/04/18 12:20:42;;;;;;;;;;;;;;;8.24;36.72;97858.27;109037;1282;22669;-84
2022/04/18 12:23:24;;;;;;;;;;;;;;;8.11;37.27;97856.16;109118;1282;22561;-84
2022/04/18 12:25:51;;;;;;;;;;;;;;;8.12;37.46;97854.52;108959;1271;22603;-81
2022/04/18 12:28:20;;;;;;;;;;;;;;;8.17;37.62;97849.55;109058;1282;22574;-83
2022/04/18 12:30:48;;;;;;;;;;;;;;;8.27;37.86;97852.95;109163;1281;22566;-85
2022/04/18 12:33:20;;;;;;;;;;;;;;;8.27;37.66;97849.35;108240;1281;23245;-83
2022/04/18 12:35:51;;;;;;;;;;;;;;;8.25;37.79;97849.81;106723;1281;24078;-84
2022/04/18 12:38:31;;;;;;;;;;;;;;;8.36;39.09;97842.50;107480;1281;22653;-82
2022/04/18 12:40:59;;;;;;;;;;;;;;;8.51;37.86;97839.30;108635;1281;22568;-87
2022/04/18 12:43:28;;;;;;;;;;;;;;;8.55;37.36;97837.58;108902;1283;22942;-85
2022/04/18 12:45:57;;;;;;;;;;;;;;;8.57;37.51;97836.27;108893;1281;22570;-84
2022/04/18 12:48:26;;;;;;;;;;;;;;;8.62;38.15;97833.36;108686;1282;23894;-85
2022/04/18 12:50:55;;;;;;;;;;;;;;;8.75;38.41;97830.20;108997;1282;22642;-84
2022/04/18 12:53:42;;;;;;;;;;;;;;;8.90;37.48;97833.27;108869;1283;23003;-84
2022/04/18 12:56:10;;;;;;;;;;;;;;;8.86;36.69;97828.43;108381;1282;22679;-85
2022/04/18 12:58:39;;;;;;;;;;;;;;;8.88;36.88;97820.57;107326;1282;22669;-88
2022/04/18 13:01:07;;;;;;;;;;;;;;;9.01;38.00;97814.43;108746;1283;22715;-81
2022/04/18 13:03:42;;;;;;;;;;;;;;;9.22;36.99;97820.04;108904;1283;22950;-87
2022/04/18 13:10:05;;;;;;;;;;;;;;;9.75;38.12;97810.27;108855;1283;23824;-84
2022/04/18 13:12:33;;;;;;;;;;;;;;;9.90;37.80;97816.16;109085;1282;22667;-84